Terminal Aerodrome Forecast
Issued by NWS Spokane, WA

Home | Current Version | Previous Version | Text Only | Print | Product List | Glossary On
Versions: 1 2 3 4 5 6 7 8 9 10 11 12 13 14 15 16 17 18 19 20 21 22 23 24 25 26 27 28 29 30 31
000
FTUS46 KOTX 270831 AAB
TAFGEG
TAF AMD
KGEG 270831Z 2709/2806 VRB04KT 1/2SM FZFG OVC002
     FM271600 24006KT 2SM BR SCT003 OVC015
     FM271800 22010KT P6SM VCSH SCT010 OVC030
     FM280400 19005KT 2SM -SN BKN008 OVC012=

USA.gov is the U.S. government's official web portal to all federal, state and local government web resources and services.